Time;durP1;ratioP1;P1;durP2;ratioP2;P2;SDS_P1;SDS_P2;PMS_P1;PMS_P2;Temp;Humidity;BMP_temperature;BMP_pressure;BME280_temperature;BME280_humidity;BME280_pressure;Samples;Min_cycle;Max_cycle;Signal;HPM_P1;HPM_P2
2021/03/07 00:02:19;;;;;;;9.23;4.38;;;;;;;8.46;51.77;102295.44;4959777;28;98225;-80
2021/03/07 00:04:45;;;;;;;6.47;4.35;;;;;;;8.66;51.27;102289.22;4973284;28;96761;-79
2021/03/07 00:07:11;;;;;;;7.95;4.60;;;;;;;8.69;50.81;102289.22;4962464;28;96941;-79
2021/03/07 00:09:37;;;;;;;10.63;4.75;;;;;;;8.50;51.51;102287.50;4975738;28;99027;-80
2021/03/07 00:12:03;;;;;;;5.53;4.20;;;;;;;8.62;51.03;102286.59;4974559;28;99074;-80
2021/03/07 00:14:29;;;;;;;6.50;4.05;;;;;;;8.54;51.08;102277.81;4975862;28;97082;-81
2021/03/07 00:16:55;;;;;;;9.60;4.10;;;;;;;8.35;51.27;102283.16;4981115;28;96873;-79
2021/03/07 00:19:21;;;;;;;7.18;3.72;;;;;;;8.47;51.31;102274.34;4962873;28;98907;-79
2021/03/07 00:21:47;;;;;;;7.35;4.28;;;;;;;8.52;51.17;102267.31;4976755;28;98885;-78
2021/03/07 00:24:13;;;;;;;10.88;4.20;;;;;;;8.71;50.31;102276.03;4976248;28;96776;-80
2021/03/07 00:26:39;;;;;;;;;;;;;;;8.94;49.50;102268.03;4990018;28;96688;-80
2021/03/07 00:29:06;;;;;;;8.02;4.40;;;;;;;8.86;49.75;102265.41;4989756;28;97757;-82
2021/03/07 00:31:32;;;;;;;7.80;3.70;;;;;;;8.62;50.17;102262.88;4995344;28;98879;-80
2021/03/07 00:33:58;;;;;;;8.82;3.85;;;;;;;8.80;49.66;102260.16;4987755;28;96735;-80
2021/03/07 00:36:24;;;;;;;9.43;4.25;;;;;;;8.72;49.63;102251.44;4980016;28;95947;-79
2021/03/07 00:38:50;;;;;;;7.78;3.92;;;;;;;8.48;50.72;102256.78;4994727;28;97746;-80
2021/03/07 00:41:16;;;;;;;;;;;;;;;8.42;50.69;102251.53;4983331;28;100256;-80
2021/03/07 00:43:42;;;;;;;4.82;3.53;;;;;;;8.49;50.83;102246.25;4994422;28;95866;-81
2021/03/07 00:46:08;;;;;;;;;;;;;;;8.40;50.96;102247.13;4996453;28;96584;-80
2021/03/07 00:48:35;;;;;;;6.43;3.95;;;;;;;8.65;50.63;102247.06;4987450;28;96748;-81
2021/03/07 00:51:01;;;;;;;5.60;4.03;;;;;;;8.53;50.88;102248.00;4980243;28;96858;-80
2021/03/07 00:53:27;;;;;;;5.93;4.10;;;;;;;8.79;50.27;102237.34;4973988;28;96861;-80
2021/03/07 00:55:53;;;;;;;;;;;;;;;8.55;50.77;102242.69;4968367;28;97454;-79
2021/03/07 00:58:19;;;;;;;8.00;4.55;;;;;;;8.76;50.66;102235.59;4964745;28;99244;-80
2021/03/07 01:00:46;;;;;;;7.75;4.85;;;;;;;8.52;51.51;102232.19;4964321;28;96844;-80
2021/03/07 01:03:12;;;;;;;8.93;5.30;;;;;;;8.61;51.44;102229.50;4965602;28;96837;-80
2021/03/07 01:05:39;;;;;;;11.20;5.35;;;;;;;8.32;52.66;102233.13;4964243;28;96774;-81
2021/03/07 01:08:06;;;;;;;10.25;5.10;;;;;;;8.10;53.58;102225.22;4965382;28;97835;-80
2021/03/07 01:10:35;;;;;;;10.10;5.72;;;;;;;8.25;53.33;102223.47;4972107;28;99333;-80
2021/03/07 01:13:01;;;;;;;7.10;4.82;;;;;;;7.83;54.66;102215.63;4966790;28;96828;-79
2021/03/07 01:15:30;;;;;;;7.97;5.07;;;;;;;7.96;54.06;102214.72;4967097;28;96906;-80
2021/03/07 01:17:57;;;;;;;8.05;4.82;;;;;;;8.12;53.37;102210.31;4964957;28;99292;-80
2021/03/07 01:20:23;;;;;;;9.75;5.22;;;;;;;8.13;53.27;102212.97;4965079;28;97860;-80
2021/03/07 01:22:50;;;;;;;9.90;5.20;;;;;;;8.15;53.15;102205.03;4967016;28;98392;-80
2021/03/07 01:25:18;;;;;;;8.80;5.00;;;;;;;8.17;53.37;102204.16;4966557;28;97031;-82
2021/03/07 01:27:44;;;;;;;10.10;5.88;;;;;;;8.12;53.61;102198.03;4965973;28;97391;-79
2021/03/07 01:30:10;;;;;;;;;;;;;;;8.15;53.67;102198.00;4968148;28;98905;-79
2021/03/07 01:32:37;;;;;;;6.60;4.53;;;;;;;8.20;53.42;102187.50;4967314;28;98360;-79
2021/03/07 01:35:04;;;;;;;12.23;4.93;;;;;;;8.40;52.89;102191.81;4968905;28;97114;-79
2021/03/07 01:37:30;;;;;;;8.20;4.95;;;;;;;8.04;53.78;102188.38;4973540;28;98882;-80
2021/03/07 01:39:56;;;;;;;;;;;;;;;8.32;53.31;102184.84;4975923;28;98870;-79
2021/03/07 01:42:22;;;;;;;7.70;5.47;;;;;;;8.27;53.60;102190.06;4958447;28;96795;-80
2021/03/07 01:44:48;;;;;;;11.05;5.72;;;;;;;8.25;53.20;102185.72;4962738;28;97115;-81
2021/03/07 01:47:17;;;;;;;;;;;;;;;8.18;53.57;102171.69;4965992;28;98857;-81
2021/03/07 01:49:43;;;;;;;9.05;5.40;;;;;;;8.11;53.76;102177.84;4962698;28;99397;-80
2021/03/07 01:52:09;;;;;;;;;;;;;;;8.04;54.27;102168.22;4968188;28;96712;-81
2021/03/07 01:54:35;;;;;;;8.27;5.47;;;;;;;7.97;54.35;102166.47;4962660;28;96818;-80
2021/03/07 01:57:04;;;;;;;13.27;5.65;;;;;;;7.88;54.65;102154.19;4979512;28;97742;-81
2021/03/07 01:59:32;;;;;;;13.10;6.13;;;;;;;7.88;54.08;102151.56;4980423;28;96807;-80
2021/03/07 02:01:58;;;;;;;11.90;5.38;;;;;;;8.00;53.67;102146.31;4994726;28;97382;-81
2021/03/07 02:04:24;;;;;;;;;;;;;;;7.78;53.85;102147.22;4998845;28;96522;-80
2021/03/07 02:06:50;;;;;;;9.48;4.45;;;;;;;7.67;54.00;102137.59;4994274;28;97738;-78
2021/03/07 02:09:17;;;;;;;9.13;4.75;;;;;;;7.47;54.03;102141.13;4993598;28;99108;-80
2021/03/07 02:11:43;;;;;;;6.90;4.38;;;;;;;8.01;53.06;102141.88;4982162;28;97539;-80
2021/03/07 02:14:11;;;;;;;6.03;3.97;;;;;;;8.28;51.64;102136.53;4972881;28;96909;-81
2021/03/07 02:16:38;;;;;;;6.40;4.43;;;;;;;8.20;51.98;102148.88;4980999;28;100459;-79
2021/03/07 02:19:06;;;;;;;10.18;4.65;;;;;;;7.94;52.24;102137.53;4982563;28;99119;-79
2021/03/07 02:21:36;;;;;;;8.93;3.40;;;;;;;7.91;51.88;102129.63;4977884;28;96768;-80
2021/03/07 02:24:07;;;;;;;8.52;3.30;;;;;;;8.09;50.99;102134.84;4989576;28;96532;-79
2021/03/07 02:26:35;;;;;;;8.38;3.60;;;;;;;8.15;50.71;102126.03;4984986;28;98340;-80
2021/03/07 02:29:03;;;;;;;10.02;3.65;;;;;;;8.31;49.98;102126.03;4967382;28;99223;-80
2021/03/07 02:31:29;;;;;;;6.88;2.80;;;;;;;8.10;50.07;102126.06;4977323;28;96877;-79
2021/03/07 02:34:00;;;;;;;6.63;2.83;;;;;;;8.17;49.35;102124.28;4978144;28;96849;-80
2021/03/07 02:36:31;;;;;;;3.78;2.17;;;;;;;7.77;49.20;102118.25;4969510;28;100307;-80
2021/03/07 02:39:00;;;;;;;2.38;1.73;;;;;;;8.01;48.17;102119.06;4965785;28;99332;-80
2021/03/07 02:41:29;;;;;;;7.78;2.03;;;;;;;7.43;48.94;102120.06;4969648;28;96757;-80
2021/03/07 02:43:57;;;;;;;7.68;1.95;;;;;;;7.06;48.86;102116.56;4969516;28;98448;-81
2021/03/07 02:46:25;;;;;;;2.83;1.33;;;;;;;6.78;48.96;102113.91;4971417;28;98386;-81
2021/03/07 02:48:55;;;;;;;8.15;1.50;;;;;;;7.18;48.02;102113.94;4965442;28;98035;-80
2021/03/07 02:51:23;;;;;;;3.13;1.30;;;;;;;6.92;48.33;102113.94;4975216;28;98570;-80
2021/03/07 02:53:51;;;;;;;4.78;1.73;;;;;;;7.02;48.26;102112.22;4975565;28;96877;-80
2021/03/07 02:56:21;;;;;;;2.88;1.27;;;;;;;7.06;47.62;102114.81;4974205;28;98521;-80
2021/03/07 02:58:49;;;;;;;4.22;1.35;;;;;;;7.39;47.10;102107.81;4978612;28;97738;-80
2021/03/07 03:01:18;;;;;;;5.50;1.30;;;;;;;7.20;46.90;102106.94;4975743;28;96758;-80
2021/03/07 03:03:49;;;;;;;2.17;1.20;;;;;;;7.18;47.45;102103.44;4968511;28;97639;-82
2021/03/07 03:06:16;;;;;;;2.17;1.40;;;;;;;6.79;47.83;102105.16;4958864;28;98945;-80
2021/03/07 03:08:45;;;;;;;6.47;1.30;;;;;;;6.79;48.44;102099.91;4967179;28;97705;-82
2021/03/07 03:11:12;;;;;;;5.25;1.30;;;;;;;7.18;47.32;102098.16;4974552;28;96779;-80
2021/03/07 03:13:38;;;;;;;6.15;1.67;;;;;;;7.01;47.42;102094.69;4964762;28;98764;-80
2021/03/07 03:16:06;;;;;;;5.40;1.20;;;;;;;7.28;47.02;102085.91;4965636;28;98968;-80
2021/03/07 03:18:35;;;;;;;4.05;1.30;;;;;;;7.19;46.67;102078.91;4967663;28;98828;-80
2021/03/07 03:21:04;;;;;;;6.28;1.58;;;;;;;7.26;47.26;102083.28;4967310;28;98388;-80
2021/03/07 03:23:30;;;;;;;5.13;1.30;;;;;;;7.58;46.84;102076.22;4969773;28;96947;-80
2021/03/07 03:25:56;;;;;;;5.45;2.13;;;;;;;7.33;47.11;102076.25;4968234;28;99344;-80
2021/03/07 03:28:24;;;;;;;3.50;1.33;;;;;;;7.12;47.80;102074.53;4972763;28;98883;-80
2021/03/07 03:30:52;;;;;;;3.65;1.50;;;;;;;6.67;49.15;102081.50;4962009;28;96917;-80
2021/03/07 03:33:18;;;;;;;6.22;1.80;;;;;;;6.97;49.02;102074.50;4960318;28;97576;-80
2021/03/07 03:35:44;;;;;;;6.47;1.73;;;;;;;7.24;48.35;102074.50;4971319;28;98998;-79
2021/03/07 03:38:10;;;;;;;6.13;2.00;;;;;;;7.27;48.29;102071.00;4961547;28;99000;-80
2021/03/07 03:40:37;;;;;;;;;;;;;;;7.38;48.35;102077.13;4974590;28;96791;-80
2021/03/07 03:43:07;;;;;;;6.27;1.93;;;;;;;7.04;48.97;102078.91;4972875;28;97400;-78
2021/03/07 03:45:35;;;;;;;5.28;1.58;;;;;;;7.46;48.19;102078.88;4969103;28;99406;-79
2021/03/07 03:48:05;;;;;;;5.20;1.88;;;;;;;7.43;48.12;102075.34;4968511;28;100056;-79
2021/03/07 03:50:36;;;;;;;4.93;1.88;;;;;;;6.96;49.33;102076.25;4971730;28;97355;-80
2021/03/07 03:53:03;;;;;;;7.95;1.92;;;;;;;7.43;48.76;102065.72;4972865;28;96860;-79
2021/03/07 03:55:30;;;;;;;8.55;2.40;;;;;;;6.87;49.34;102063.13;4973999;28;99251;-80
2021/03/07 03:58:01;;;;;;;4.47;1.83;;;;;;;6.95;49.50;102057.88;4972720;28;99009;-80
2021/03/07 04:00:27;;;;;;;5.65;2.03;;;;;;;6.93;49.69;102064.88;4969453;28;96902;-80
2021/03/07 04:02:56;;;;;;;7.32;2.22;;;;;;;7.00;49.21;102056.13;4970328;28;97612;-79
2021/03/07 04:05:25;;;;;;;9.13;2.17;;;;;;;7.22;48.67;102057.84;4972407;28;97871;-79
2021/03/07 04:07:52;;;;;;;5.10;2.58;;;;;;;6.52;50.78;102064.81;4961336;28;100946;-80
2021/03/07 04:10:20;;;;;;;4.03;1.80;;;;;;;6.92;49.54;102045.59;4969232;28;97199;-81
2021/03/07 04:12:48;;;;;;;6.80;2.30;;;;;;;6.97;48.86;102057.00;4964405;28;96907;-79
2021/03/07 04:15:16;;;;;;;7.20;2.20;;;;;;;7.29;48.50;102061.34;4967405;28;99160;-79
2021/03/07 04:17:44;;;;;;;5.97;2.28;;;;;;;7.06;48.89;102054.38;4972007;28;98852;-80
2021/03/07 04:20:12;;;;;;;4.00;2.22;;;;;;;7.24;48.15;102060.47;4968435;28;96706;-79
2021/03/07 04:22:38;;;;;;;9.30;2.30;;;;;;;7.12;48.54;102057.00;4965678;28;97243;-80
2021/03/07 04:25:06;;;;;;;;;;;;;;;6.80;48.98;102051.75;4967218;28;98877;-79
2021/03/07 04:27:33;;;;;;;8.75;2.13;;;;;;;6.30;50.69;102058.66;4954306;28;98235;-80
2021/03/07 04:29:59;;;;;;;6.25;2.40;;;;;;;6.62;49.79;102046.47;4968340;28;98722;-79
2021/03/07 04:32:26;;;;;;;3.25;2.08;;;;;;;6.67;49.28;102046.47;4966374;28;96770;-79
2021/03/07 04:34:52;;;;;;;3.92;1.83;;;;;;;7.00;48.38;102033.34;4960143;28;98935;-80
2021/03/07 04:37:18;;;;;;;;;;;;;;;7.21;47.77;102032.47;4974022;28;99466;-79
2021/03/07 04:39:44;;;;;;;11.57;2.97;;;;;;;7.10;48.55;102034.19;4971050;28;96838;-80
2021/03/07 04:42:11;;;;;;;7.82;2.60;;;;;;;7.31;47.80;102035.94;4975947;28;97624;-80
2021/03/07 04:44:37;;;;;;;6.90;2.17;;;;;;;7.31;47.73;102042.06;4981590;28;99299;-79
2021/03/07 04:47:03;;;;;;;5.85;2.13;;;;;;;6.93;48.78;102042.13;4976024;28;98987;-79
2021/03/07 04:49:29;;;;;;;;;;;;;;;7.28;47.93;102034.22;4984144;28;96913;-80
2021/03/07 04:51:55;;;;;;;8.10;2.22;;;;;;;6.98;48.63;102023.72;4985470;28;97771;-80
2021/03/07 04:54:21;;;;;;;4.93;2.40;;;;;;;7.14;48.30;102025.47;4984699;28;97768;-80
2021/03/07 04:56:47;;;;;;;;;;;;;;;7.15;48.14;102033.31;4970249;28;97843;-80
2021/03/07 04:59:14;;;;;;;7.07;2.75;;;;;;;7.12;47.99;102033.34;4973274;28;96824;-80
2021/03/07 05:01:40;;;;;;;8.32;2.13;;;;;;;6.98;48.20;102029.84;4978029;28;96806;-80
2021/03/07 05:04:06;;;;;;;;;;;;;;;6.92;48.22;102031.59;4971811;28;98860;-80
2021/03/07 05:06:37;;;;;;;4.40;2.50;;;;;;;7.09;48.07;102033.31;4982134;28;98265;-80
2021/03/07 05:09:03;;;;;;;4.55;2.22;;;;;;;6.94;48.26;102027.22;4988776;28;96654;-80
2021/03/07 05:11:29;;;;;;;8.30;2.35;;;;;;;6.75;48.35;102019.34;4991523;28;96554;-80
2021/03/07 05:13:55;;;;;;;;;;;;;;;6.88;48.31;102009.72;4980740;28;97763;-80
2021/03/07 05:16:22;;;;;;;5.47;2.30;;;;;;;6.68;48.50;102016.72;4988706;28;97880;-80
2021/03/07 05:18:48;;;;;;;7.22;2.38;;;;;;;6.91;48.29;102004.44;4993337;28;96444;-80
2021/03/07 05:21:13;;;;;;;;;;;;;;;6.99;48.00;102009.69;4983705;28;96560;-80
2021/03/07 05:23:39;;;;;;;5.43;2.30;;;;;;;6.60;48.49;102008.81;4986742;28;97803;-79
2021/03/07 05:26:05;;;;;;;;;;;;;;;6.87;48.13;102007.06;4976918;28;98901;-80
2021/03/07 05:28:32;;;;;;;4.90;2.45;;;;;;;7.33;47.06;101998.25;4973184;28;96725;-80
2021/03/07 05:30:58;;;;;;;6.22;2.10;;;;;;;7.04;47.46;102000.03;4982373;28;96603;-80
2021/03/07 05:33:24;;;;;;;;;;;;;;;7.23;46.58;101988.63;4982455;28;99505;-81
2021/03/07 05:35:50;;;;;;;5.35;2.63;;;;;;;7.04;46.86;101992.16;4984670;28;98926;-80
2021/03/07 05:38:16;;;;;;;6.88;2.10;;;;;;;7.09;46.83;101986.00;4973926;28;97120;-80
2021/03/07 05:40:42;;;;;;;;;;;;;;;6.98;46.86;101989.53;4975012;28;97889;-79
2021/03/07 05:43:09;;;;;;;4.40;1.80;;;;;;;7.06;46.38;101987.78;4967045;28;98907;-79
2021/03/07 05:45:35;;;;;;;5.00;2.17;;;;;;;7.09;46.73;101980.75;4971873;28;99052;-79
2021/03/07 05:48:01;;;;;;;7.20;2.00;;;;;;;7.18;46.02;101979.88;4972972;28;96655;-79
2021/03/07 05:50:28;;;;;;;;;;;;;;;7.07;46.48;101981.66;4966989;28;96824;-80
2021/03/07 05:52:57;;;;;;;7.00;2.50;;;;;;;6.94;46.37;101979.94;4964235;28;99237;-81
2021/03/07 05:55:23;;;;;;;5.05;2.28;;;;;;;7.25;46.20;101973.72;4971689;28;98859;-79
2021/03/07 05:57:50;;;;;;;9.68;2.47;;;;;;;7.15;46.25;101978.13;4971382;28;97437;-78
2021/03/07 06:00:19;;;;;;;3.00;2.03;;;;;;;6.88;46.90;101977.31;4970746;28;96964;-79
2021/03/07 06:02:45;;;;;;;2.28;1.73;;;;;;;7.25;46.33;101986.88;4975056;28;98898;-80
2021/03/07 06:05:13;;;;;;;6.68;1.75;;;;;;;7.30;45.97;101992.09;4974710;28;99379;-80
2021/03/07 06:07:40;;;;;;;5.68;2.13;;;;;;;7.26;45.91;101980.75;4968845;28;96952;-81
2021/03/07 06:10:17;;;;;;;7.05;2.33;;;;;;;6.92;46.76;101986.91;4974796;28;97056;-80
2021/03/07 06:12:54;;;;;;;6.50;1.80;;;;;;;6.96;46.33;101981.66;4970566;28;99431;-81
2021/03/07 06:15:20;;;;;;;7.88;2.10;;;;;;;6.64;47.38;101971.16;4971355;28;98996;-80
2021/03/07 06:17:47;;;;;;;;;;;;;;;6.80;47.05;101967.66;4959168;28;97094;-80
2021/03/07 06:20:15;;;;;;;3.92;1.80;;;;;;;7.24;46.22;101971.09;4963245;28;97908;-80
2021/03/07 06:22:53;;;;;;;6.32;1.83;;;;;;;7.07;46.17;101974.66;4963828;28;99320;-79
2021/03/07 06:25:19;;;;;;;4.60;2.20;;;;;;;6.89;46.34;101966.81;4959016;28;98012;-80
2021/03/07 06:27:45;;;;;;;5.00;1.65;;;;;;;7.01;45.99;101973.78;4965476;28;96833;-79
2021/03/07 06:30:14;;;;;;;5.03;1.60;;;;;;;7.44;45.26;101970.16;4962381;28;96836;-79
2021/03/07 06:32:42;;;;;;;7.10;2.20;;;;;;;7.34;45.34;101976.34;4977262;28;98983;-79
2021/03/07 06:35:10;;;;;;;4.13;1.70;;;;;;;7.42;45.16;101974.53;4976264;28;98879;-79
2021/03/07 06:37:51;;;;;;;4.95;2.05;;;;;;;7.10;45.00;101981.63;4978793;28;96717;-79
2021/03/07 06:40:27;;;;;;;4.05;1.48;;;;;;;7.36;44.29;101978.94;4974928;28;96707;-79
2021/03/07 06:42:54;;;;;;;3.72;1.65;;;;;;;7.16;45.08;101977.25;4962316;28;97590;-79
2021/03/07 06:45:20;;;;;;;6.28;1.98;;;;;;;7.37;44.52;101968.44;4964818;28;97958;-79
2021/03/07 06:47:57;;;;;;;7.22;1.52;;;;;;;7.22;44.81;101971.09;4971569;28;96695;-79
2021/03/07 06:50:24;;;;;;;7.50;1.85;;;;;;;7.47;44.38;101967.53;4979650;28;96834;-80
2021/03/07 06:52:53;;;;;;;4.13;1.48;;;;;;;7.33;44.76;101969.34;4966427;28;97719;-79
2021/03/07 06:55:21;;;;;;;4.80;1.45;;;;;;;7.12;44.95;101964.13;4982578;28;99555;-80
2021/03/07 06:57:47;;;;;;;5.63;1.80;;;;;;;6.75;45.88;101969.44;4981869;28;97156;-80
2021/03/07 07:00:14;;;;;;;6.47;1.67;;;;;;;7.37;44.70;101970.19;4980712;28;97198;-80
2021/03/07 07:02:40;;;;;;;4.78;1.83;;;;;;;7.24;45.04;101963.22;4970879;28;98219;-78
2021/03/07 07:05:07;;;;;;;10.25;1.65;;;;;;;7.34;44.83;101960.56;4971095;28;98353;-79
2021/03/07 07:07:34;;;;;;;2.90;1.30;;;;;;;7.36;44.30;101969.31;4962864;28;96864;-80
2021/03/07 07:10:03;;;;;;;8.52;1.73;;;;;;;6.87;45.34;101962.41;4972759;28;96756;-80
2021/03/07 07:12:30;;;;;;;6.25;1.48;;;;;;;7.30;44.57;101968.44;4966856;28;98921;-81
2021/03/07 07:15:08;;;;;;;4.68;1.60;;;;;;;7.39;44.24;101969.31;4968395;28;98391;-80
2021/03/07 07:17:35;;;;;;;6.30;1.55;;;;;;;7.14;44.59;101967.63;4971053;28;98213;-79
2021/03/07 07:20:01;;;;;;;3.60;1.70;;;;;;;7.43;44.52;101965.78;4972762;28;96900;-80
2021/03/07 07:22:27;;;;;;;3.95;1.80;;;;;;;7.33;44.87;101964.06;4971352;28;98925;-80
2021/03/07 07:24:53;;;;;;;8.43;1.83;;;;;;;7.66;43.91;101963.09;4974325;28;99024;-79
2021/03/07 07:27:21;;;;;;;2.65;1.60;;;;;;;7.66;43.89;101965.72;4972834;28;96987;-79
2021/03/07 07:29:47;;;;;;;4.50;1.60;;;;;;;7.61;44.16;101959.59;4968428;28;98109;-80
2021/03/07 07:32:22;;;;;;;2.63;1.33;;;;;;;7.50;44.25;101957.00;4965956;28;98855;-80
2021/03/07 07:34:50;;;;;;;2.22;1.40;;;;;;;7.36;44.29;101947.41;4971728;28;98793;-80
2021/03/07 07:37:23;;;;;;;4.10;1.35;;;;;;;7.36;44.67;101953.53;4968300;28;99644;-78
2021/03/07 07:39:51;;;;;;;7.55;2.00;;;;;;;7.50;44.07;101949.09;4976207;28;96828;-79
2021/03/07 07:42:20;;;;;;;4.13;1.48;;;;;;;7.22;44.61;101943.97;4978680;28;98974;-80
2021/03/07 07:44:47;;;;;;;5.25;1.88;;;;;;;7.53;43.55;101945.59;4974272;28;98891;-81
2021/03/07 07:47:13;;;;;;;2.70;1.60;;;;;;;7.24;44.17;101948.31;4964716;28;97191;-81
2021/03/07 07:49:41;;;;;;;4.53;1.45;;;;;;;7.28;43.85;101954.47;4974748;28;97078;-80
2021/03/07 07:52:35;;;;;;;7.90;1.67;;;;;;;7.41;43.63;101954.41;4971756;28;97827;-80
2021/03/07 07:55:08;;;;;;;5.30;1.45;;;;;;;6.94;44.29;101954.53;4961860;28;97716;-81
2021/03/07 07:57:59;;;;;;;7.55;1.88;;;;;;;7.38;43.73;101946.53;4974523;28;96690;-80
2021/03/07 08:00:47;;;;;;;11.43;2.67;;;;;;;7.76;42.63;101943.72;4969733;28;97611;-80
2021/03/07 08:03:32;;;;;;;4.75;1.63;;;;;;;7.72;42.82;101935.88;4963969;28;98956;-80
2021/03/07 08:05:58;;;;;;;5.75;1.80;;;;;;;7.62;42.69;101940.28;4973054;28;101360;-81
2021/03/07 08:08:36;;;;;;;5.15;1.70;;;;;;;7.72;42.42;101922.72;4974632;28;96958;-80
2021/03/07 08:11:04;;;;;;;5.72;1.70;;;;;;;7.59;42.82;101935.06;4976148;28;96938;-79
2021/03/07 08:13:48;;;;;;;4.25;1.65;;;;;;;7.89;41.97;101929.63;4969438;28;99736;-79
2021/03/07 08:16:36;;;;;;;3.75;1.27;;;;;;;7.95;42.02;101931.34;4972590;28;99419;-79
2021/03/07 08:19:03;;;;;;;6.28;1.50;;;;;;;8.03;41.83;101926.91;4974751;28;98589;-78
2021/03/07 08:21:29;;;;;;;4.57;1.50;;;;;;;8.11;41.84;101925.09;4978794;28;97264;-77
2021/03/07 08:24:00;;;;;;;4.30;1.30;;;;;;;7.96;41.90;101928.69;4987781;28;98944;-78
2021/03/07 08:26:48;;;;;;;2.58;1.27;;;;;;;7.85;42.18;101929.66;4988671;28;98796;-78
2021/03/07 08:29:40;;;;;;;7.32;1.88;;;;;;;7.88;42.42;101927.00;4964481;28;96740;-77
2021/03/07 08:32:25;;;;;;;5.15;1.70;;;;;;;7.96;42.26;101925.19;4979469;28;96783;-78
2021/03/07 08:34:51;;;;;;;10.32;1.83;;;;;;;7.67;43.20;101927.13;4987664;28;99197;-79
2021/03/07 08:37:17;;;;;;;;;;;;;;;8.14;41.83;101919.81;4978137;28;97785;-79
2021/03/07 08:39:43;;;;;;;3.78;1.40;;;;;;;7.83;42.43;101929.66;4984424;28;97374;-79
2021/03/07 08:42:09;;;;;;;;;;;;;;;7.67;42.71;101919.22;4983541;28;96729;-80
2021/03/07 08:44:35;;;;;;;5.35;1.40;;;;;;;7.75;42.36;101925.31;4964156;28;99119;-78
2021/03/07 08:47:01;;;;;;;2.83;1.73;;;;;;;8.14;41.94;101913.69;4975707;28;97780;-79
2021/03/07 08:49:31;;;;;;;7.25;2.13;;;;;;;8.45;41.29;101909.97;4975433;28;97272;-79
2021/03/07 08:51:59;;;;;;;6.40;1.67;;;;;;;8.01;42.32;101918.13;4974025;28;97477;-80
2021/03/07 08:54:29;;;;;;;7.00;2.33;;;;;;;8.15;41.72;101916.28;4976688;28;98847;-80
2021/03/07 08:56:56;;;;;;;3.90;1.52;;;;;;;8.09;42.06;101911.06;4970598;28;98899;-80
2021/03/07 08:59:26;;;;;;;3.42;1.50;;;;;;;8.15;41.95;101899.63;4971923;28;96743;-79
2021/03/07 09:01:53;;;;;;;4.50;1.42;;;;;;;8.40;41.57;101904.72;4975245;28;97949;-78
2021/03/07 09:04:19;;;;;;;10.63;1.88;;;;;;;8.09;42.19;101891.75;4971522;28;98927;-79
2021/03/07 09:06:46;;;;;;;;;;;;;;;7.80;42.86;101900.75;4975220;28;99125;-80
2021/03/07 09:09:13;;;;;;;;;;;;;;;8.09;42.32;101895.28;4976186;28;96735;-78
2021/03/07 09:11:46;;;;;;;4.25;1.50;;;;;;;7.87;42.56;101893.69;4973938;28;98552;-80
2021/03/07 09:14:12;;;;;;;8.95;2.10;;;;;;;8.12;42.44;101897.91;4971973;28;101524;-80
2021/03/07 09:16:39;;;;;;;;;;;;;;;8.67;41.16;101885.16;4967212;28;98850;-80
2021/03/07 09:19:24;;;;;;;2.75;1.73;;;;;;;8.25;41.73;101880.25;4973342;28;96861;-80
2021/03/07 09:22:13;;;;;;;4.10;1.83;;;;;;;8.16;41.98;101891.72;4974776;28;97646;-80
2021/03/07 09:24:48;;;;;;;7.88;2.05;;;;;;;8.56;41.33;101892.28;4956520;28;99265;-80
2021/03/07 09:27:14;;;;;;;7.70;2.20;;;;;;;8.30;41.41;101881.06;4972747;28;99292;-78
2021/03/07 09:29:52;;;;;;;8.90;2.35;;;;;;;8.45;42.07;101888.03;4967076;28;97001;-80
2021/03/07 09:32:24;;;;;;;10.07;2.03;;;;;;;8.28;42.05;101880.22;4973510;28;97179;-78
2021/03/07 09:34:52;;;;;;;3.50;1.80;;;;;;;8.15;42.26;101889.97;4975530;28;99122;-79
2021/03/07 09:37:19;;;;;;;7.63;2.17;;;;;;;8.06;42.11;101887.41;4981823;28;99199;-79
2021/03/07 09:39:46;;;;;;;5.82;2.38;;;;;;;7.98;42.49;101884.84;4977166;28;96698;-79
2021/03/07 09:42:12;;;;;;;3.42;1.92;;;;;;;8.44;41.67;101873.97;4978817;28;97123;-79
2021/03/07 09:44:40;;;;;;;3.10;2.03;;;;;;;7.91;43.20;101879.63;4976488;28;99199;-78
2021/03/07 09:47:06;;;;;;;3.45;2.22;;;;;;;7.94;43.21;101880.44;4982107;28;100080;-79
2021/03/07 09:49:32;;;;;;;4.22;2.72;;;;;;;8.24;42.33;101882.00;4984977;28;96866;-79
2021/03/07 09:51:59;;;;;;;5.35;2.10;;;;;;;8.20;42.11;101872.41;4988294;28;96838;-79
2021/03/07 09:54:26;;;;;;;8.93;2.22;;;;;;;8.60;41.61;101880.00;4995697;28;97782;-80
2021/03/07 09:56:54;;;;;;;4.97;2.72;;;;;;;8.37;41.87;101878.41;4986556;28;97842;-79
2021/03/07 09:59:24;;;;;;;5.47;2.30;;;;;;;8.38;41.96;101874.91;4988343;28;97488;-79
2021/03/07 10:01:52;;;;;;;4.25;2.40;;;;;;;8.44;42.15;101881.88;4988735;28;96462;-79
2021/03/07 10:04:25;;;;;;;5.60;2.30;;;;;;;8.86;40.87;101880.56;4998316;28;98042;-79
2021/03/07 10:06:51;;;;;;;7.40;2.90;;;;;;;8.06;42.75;101878.63;4984826;28;97532;-79
2021/03/07 10:09:17;;;;;;;;;;;;;;;7.53;44.14;101874.59;4979728;28;96768;-79
2021/03/07 10:11:58;;;;;;;10.20;3.10;;;;;;;8.01;42.89;101874.25;4979399;28;97087;-78
2021/03/07 10:14:26;;;;;;;8.95;3.08;;;;;;;7.71;43.75;101882.38;4987874;28;98781;-79
2021/03/07 10:16:59;;;;;;;5.22;2.65;;;;;;;7.87;43.49;101881.41;4981824;28;99143;-79
2021/03/07 10:19:40;;;;;;;5.28;2.85;;;;;;;8.15;43.01;101871.53;4982028;28;96844;-80
2021/03/07 10:22:07;;;;;;;10.30;4.25;;;;;;;8.02;43.17;101873.38;4975437;28;96798;-79
2021/03/07 10:24:34;;;;;;;9.18;3.50;;;;;;;8.55;42.10;101874.75;4981675;28;99290;-79
2021/03/07 10:27:06;;;;;;;6.38;3.20;;;;;;;8.82;41.50;101873.59;4983342;28;99477;-79
2021/03/07 10:29:34;;;;;;;7.72;3.20;;;;;;;8.27;42.39;101863.53;4984253;28;96808;-80
2021/03/07 10:32:06;;;;;;;15.77;3.33;;;;;;;7.93;43.23;101873.47;4979487;28;97129;-79
2021/03/07 10:34:35;;;;;;;13.55;3.30;;;;;;;8.36;42.87;101867.88;4976065;28;98887;-79
2021/03/07 10:37:01;;;;;;;6.88;2.88;;;;;;;7.98;43.03;101862.91;4975020;28;98249;-79
2021/03/07 10:39:27;;;;;;;11.65;3.20;;;;;;;8.61;41.95;101861.50;4973927;28;98201;-80
2021/03/07 10:42:06;;;;;;;;;;;;;;;7.49;44.12;101872.81;4963264;28;97208;-80
2021/03/07 10:44:32;;;;;;;10.20;3.28;;;;;;;7.93;43.18;101868.19;4970981;28;98874;-79
2021/03/07 10:47:13;;;;;;;11.85;3.85;;;;;;;8.03;43.42;101858.47;4975292;28;97993;-79
2021/03/07 10:49:39;;;;;;;5.47;3.25;;;;;;;7.71;43.75;101858.69;4963114;28;97831;-78
2021/03/07 10:52:05;;;;;;;;;;;;;;;8.04;43.13;101862.84;4979163;28;97616;-80
2021/03/07 10:54:31;;;;;;;11.77;3.22;;;;;;;7.80;43.35;101874.44;4978869;28;98169;-80
2021/03/07 10:56:57;;;;;;;;;;;;;;;7.26;44.70;101857.19;4973784;28;100865;-79
2021/03/07 10:59:24;;;;;;;6.53;3.85;;;;;;;7.95;43.09;101865.53;4997080;28;96594;-79
2021/03/07 11:01:51;;;;;;;12.43;3.88;;;;;;;8.43;42.28;101860.81;4978380;28;96992;-80
2021/03/07 11:04:18;;;;;;;16.58;3.75;;;;;;;7.82;43.10;101850.72;4978413;28;98988;-80
2021/03/07 11:07:06;;;;;;;9.35;3.47;;;;;;;8.25;42.26;101849.53;4969384;28;98882;-81
2021/03/07 11:12:18;;;;;;;7.07;3.28;;;;;;;8.47;41.98;101833.56;4950419;28;97080;-78
2021/03/07 11:14:45;;;;;;;;;;;;;;;8.30;42.52;101838.94;4960499;28;98971;-79
2021/03/07 11:17:17;;;;;;;11.43;4.93;;;;;;;8.33;42.06;101836.34;4962177;28;99496;-79
2021/03/07 11:19:43;;;;;;;10.55;4.00;;;;;;;8.84;41.29;101824.38;4965112;28;97312;-79
2021/03/07 11:22:09;;;;;;;;;;;;;;;8.75;41.66;101833.25;4964252;28;96908;-80
2021/03/07 11:24:35;;;;;;;7.88;3.50;;;;;;;8.74;41.30;101828.00;4966129;28;100621;-80
2021/03/07 11:27:01;;;;;;;;;;;;;;;8.24;42.41;101831.09;4963452;28;96863;-79
2021/03/07 11:29:27;;;;;;;8.32;4.22;;;;;;;8.45;41.86;101824.81;4960803;28;97039;-79
2021/03/07 11:31:54;;;;;;;;;;;;;;;7.77;42.99;101818.31;4963795;28;96915;-78
2021/03/07 11:34:20;;;;;;;;;;;;;;;8.40;42.29;101819.59;4960466;28;103038;-80
2021/03/07 11:36:47;;;;;;;8.40;3.50;;;;;;;8.49;41.78;101806.31;4956479;28;98727;-80
2021/03/07 11:39:15;;;;;;;9.15;3.78;;;;;;;8.11;42.39;101805.75;4951542;28;97824;-79
2021/03/07 11:41:41;;;;;;;10.57;3.58;;;;;;;8.04;43.35;101804.94;4955192;28;96753;-79
2021/03/07 11:44:08;;;;;;;10.00;4.07;;;;;;;8.34;42.30;101803.81;4953520;28;99141;-79
2021/03/07 11:46:34;;;;;;;12.15;3.70;;;;;;;7.73;43.07;101801.69;4951132;28;97648;-79
2021/03/07 11:49:01;;;;;;;13.43;4.53;;;;;;;8.30;42.43;101804.72;4957494;28;96847;-83
2021/03/07 11:51:45;;;;;;;7.95;4.15;;;;;;;8.50;41.71;101805.44;4965365;28;97024;-82